sensor_id;sensor_type;location;lat;lon;timestamp;P1;durP1;ratioP1;P2;durP2;ratioP2
30173;SDS011;16985;50.814;8.530;2022-08-24T00:01:06;5.22;;;3.10;;
30173;SDS011;16985;50.814;8.530;2022-08-24T00:03:35;3.63;;;3.00;;
30173;SDS011;16985;50.814;8.530;2022-08-24T00:06:03;5.05;;;2.92;;
30173;SDS011;16985;50.814;8.530;2022-08-24T00:08:32;5.00;;;3.45;;
30173;SDS011;16985;50.814;8.530;2022-08-24T00:10:58;4.13;;;3.30;;
30173;SDS011;16985;50.814;8.530;2022-08-24T00:13:24;5.75;;;3.60;;
30173;SDS011;16985;50.814;8.530;2022-08-24T00:15:51;5.20;;;3.70;;
30173;SDS011;16985;50.814;8.530;2022-08-24T00:18:17;4.93;;;2.90;;
30173;SDS011;16985;50.814;8.530;2022-08-24T00:20:43;4.20;;;3.25;;
30173;SDS011;16985;50.814;8.530;2022-08-24T00:23:10;4.93;;;3.00;;
30173;SDS011;16985;50.814;8.530;2022-08-24T00:25:36;4.10;;;3.15;;
30173;SDS011;16985;50.814;8.530;2022-08-24T00:28:03;5.72;;;3.25;;
30173;SDS011;16985;50.814;8.530;2022-08-24T00:30:29;4.60;;;3.50;;
30173;SDS011;16985;50.814;8.530;2022-08-24T00:32:56;4.22;;;3.33;;
30173;SDS011;16985;50.814;8.530;2022-08-24T00:35:22;5.57;;;3.47;;
30173;SDS011;16985;50.814;8.530;2022-08-24T00:37:50;3.83;;;3.13;;
30173;SDS011;16985;50.814;8.530;2022-08-24T00:40:22;4.95;;;3.33;;
30173;SDS011;16985;50.814;8.530;2022-08-24T00:42:59;4.28;;;3.42;;
30173;SDS011;16985;50.814;8.530;2022-08-24T00:45:29;3.83;;;3.00;;
30173;SDS011;16985;50.814;8.530;2022-08-24T00:48:22;3.83;;;2.60;;
30173;SDS011;16985;50.814;8.530;2022-08-24T00:50:54;8.10;;;3.38;;
30173;SDS011;16985;50.814;8.530;2022-08-24T00:53:45;6.63;;;3.70;;
30173;SDS011;16985;50.814;8.530;2022-08-24T00:56:24;7.10;;;2.88;;
30173;SDS011;16985;50.814;8.530;2022-08-24T00:59:00;4.47;;;3.00;;
30173;SDS011;16985;50.814;8.530;2022-08-24T01:01:30;5.25;;;3.08;;
30173;SDS011;16985;50.814;8.530;2022-08-24T01:03:59;4.47;;;2.90;;
30173;SDS011;16985;50.814;8.530;2022-08-24T01:06:26;4.57;;;3.13;;
30173;SDS011;16985;50.814;8.530;2022-08-24T01:08:52;6.32;;;3.15;;
30173;SDS011;16985;50.814;8.530;2022-08-24T01:11:19;10.05;;;3.25;;
30173;SDS011;16985;50.814;8.530;2022-08-24T01:13:48;4.53;;;3.13;;
30173;SDS011;16985;50.814;8.530;2022-08-24T01:16:17;7.18;;;3.45;;
30173;SDS011;16985;50.814;8.530;2022-08-24T01:19:12;5.65;;;3.30;;
30173;SDS011;16985;50.814;8.530;2022-08-24T01:22:00;5.65;;;3.80;;
30173;SDS011;16985;50.814;8.530;2022-08-24T01:24:57;5.00;;;3.00;;
30173;SDS011;16985;50.814;8.530;2022-08-24T01:27:24;4.95;;;3.03;;
30173;SDS011;16985;50.814;8.530;2022-08-24T01:29:50;3.80;;;2.63;;
30173;SDS011;16985;50.814;8.530;2022-08-24T01:32:18;6.53;;;2.97;;
30173;SDS011;16985;50.814;8.530;2022-08-24T01:34:47;4.80;;;2.95;;
30173;SDS011;16985;50.814;8.530;2022-08-24T01:37:13;4.25;;;2.55;;
30173;SDS011;16985;50.814;8.530;2022-08-24T01:39:41;7.95;;;3.10;;
30173;SDS011;16985;50.814;8.530;2022-08-24T01:42:11;6.00;;;3.08;;
30173;SDS011;16985;50.814;8.530;2022-08-24T01:44:40;4.68;;;3.05;;
30173;SDS011;16985;50.814;8.530;2022-08-24T01:47:09;4.32;;;3.20;;
30173;SDS011;16985;50.814;8.530;2022-08-24T01:49:39;3.17;;;2.53;;
30173;SDS011;16985;50.814;8.530;2022-08-24T01:52:14;8.15;;;3.10;;
30173;SDS011;16985;50.814;8.530;2022-08-24T01:54:46;4.00;;;3.05;;
30173;SDS011;16985;50.814;8.530;2022-08-24T01:57:13;5.25;;;3.70;;
30173;SDS011;16985;50.814;8.530;2022-08-24T01:59:40;6.00;;;3.10;;
30173;SDS011;16985;50.814;8.530;2022-08-24T02:02:11;6.13;;;3.13;;
30173;SDS011;16985;50.814;8.530;2022-08-24T02:04:52;5.72;;;3.58;;
30173;SDS011;16985;50.814;8.530;2022-08-24T02:07:20;3.65;;;2.70;;
30173;SDS011;16985;50.814;8.530;2022-08-24T02:09:47;5.77;;;3.27;;
30173;SDS011;16985;50.814;8.530;2022-08-24T02:12:14;5.13;;;2.78;;
30173;SDS011;16985;50.814;8.530;2022-08-24T02:14:41;6.90;;;3.05;;
30173;SDS011;16985;50.814;8.530;2022-08-24T02:17:08;3.83;;;2.67;;
30173;SDS011;16985;50.814;8.530;2022-08-24T02:19:34;3.65;;;3.30;;
30173;SDS011;16985;50.814;8.530;2022-08-24T02:22:01;5.38;;;3.17;;
30173;SDS011;16985;50.814;8.530;2022-08-24T02:24:28;5.88;;;3.33;;
30173;SDS011;16985;50.814;8.530;2022-08-24T02:26:54;4.57;;;3.00;;
30173;SDS011;16985;50.814;8.530;2022-08-24T02:29:20;5.05;;;3.05;;
30173;SDS011;16985;50.814;8.530;2022-08-24T02:31:46;6.03;;;2.95;;
30173;SDS011;16985;50.814;8.530;2022-08-24T02:34:12;4.60;;;2.90;;
30173;SDS011;16985;50.814;8.530;2022-08-24T02:36:38;7.05;;;3.08;;
30173;SDS011;16985;50.814;8.530;2022-08-24T02:39:05;3.38;;;3.03;;
30173;SDS011;16985;50.814;8.530;2022-08-24T02:41:32;4.13;;;3.03;;
30173;SDS011;16985;50.814;8.530;2022-08-24T02:43:59;4.50;;;3.20;;
30173;SDS011;16985;50.814;8.530;2022-08-24T02:46:27;5.88;;;3.58;;
30173;SDS011;16985;50.814;8.530;2022-08-24T02:48:54;5.13;;;3.22;;
30173;SDS011;16985;50.814;8.530;2022-08-24T02:51:27;5.38;;;3.17;;
30173;SDS011;16985;50.814;8.530;2022-08-24T02:53:56;7.25;;;3.13;;
30173;SDS011;16985;50.814;8.530;2022-08-24T02:58:51;3.58;;;2.92;;
30173;SDS011;16985;50.814;8.530;2022-08-24T03:01:17;4.20;;;3.13;;
30173;SDS011;16985;50.814;8.530;2022-08-24T03:03:44;4.22;;;3.13;;
30173;SDS011;16985;50.814;8.530;2022-08-24T03:06:10;4.35;;;2.72;;
30173;SDS011;16985;50.814;8.530;2022-08-24T03:08:37;5.95;;;2.90;;
30173;SDS011;16985;50.814;8.530;2022-08-24T03:11:04;5.68;;;3.00;;
30173;SDS011;16985;50.814;8.530;2022-08-24T03:13:33;7.07;;;3.40;;
30173;SDS011;16985;50.814;8.530;2022-08-24T03:16:00;3.33;;;2.70;;
30173;SDS011;16985;50.814;8.530;2022-08-24T03:20:54;4.32;;;2.90;;
30173;SDS011;16985;50.814;8.530;2022-08-24T03:23:22;6.53;;;3.38;;
30173;SDS011;16985;50.814;8.530;2022-08-24T03:25:49;8.30;;;3.08;;
30173;SDS011;16985;50.814;8.530;2022-08-24T03:28:16;4.20;;;2.78;;
30173;SDS011;16985;50.814;8.530;2022-08-24T03:30:43;3.43;;;3.00;;
30173;SDS011;16985;50.814;8.530;2022-08-24T03:33:10;3.67;;;2.85;;
30173;SDS011;16985;50.814;8.530;2022-08-24T03:35:36;4.00;;;3.40;;
30173;SDS011;16985;50.814;8.530;2022-08-24T03:38:02;3.65;;;2.78;;
30173;SDS011;16985;50.814;8.530;2022-08-24T03:40:28;3.40;;;3.10;;
30173;SDS011;16985;50.814;8.530;2022-08-24T03:42:57;5.45;;;3.13;;
30173;SDS011;16985;50.814;8.530;2022-08-24T03:45:26;5.07;;;3.20;;
30173;SDS011;16985;50.814;8.530;2022-08-24T03:47:53;8.05;;;3.70;;
30173;SDS011;16985;50.814;8.530;2022-08-24T03:50:20;3.13;;;2.80;;
30173;SDS011;16985;50.814;8.530;2022-08-24T03:52:47;5.90;;;3.28;;
30173;SDS011;16985;50.814;8.530;2022-08-24T03:55:13;4.07;;;2.85;;
30173;SDS011;16985;50.814;8.530;2022-08-24T03:57:40;3.97;;;3.10;;
30173;SDS011;16985;50.814;8.530;2022-08-24T04:00:07;5.18;;;3.17;;
30173;SDS011;16985;50.814;8.530;2022-08-24T04:02:49;4.75;;;2.60;;
30173;SDS011;16985;50.814;8.530;2022-08-24T04:05:18;4.10;;;2.92;;
30173;SDS011;16985;50.814;8.530;2022-08-24T04:07:45;8.07;;;3.33;;
30173;SDS011;16985;50.814;8.530;2022-08-24T04:10:11;4.43;;;2.65;;
30173;SDS011;16985;50.814;8.530;2022-08-24T04:12:38;4.28;;;2.85;;
30173;SDS011;16985;50.814;8.530;2022-08-24T04:15:04;7.45;;;3.17;;
30173;SDS011;16985;50.814;8.530;2022-08-24T04:17:31;4.67;;;2.77;;
30173;SDS011;16985;50.814;8.530;2022-08-24T04:19:57;3.03;;;2.58;;
30173;SDS011;16985;50.814;8.530;2022-08-24T04:22:27;3.78;;;2.90;;
30173;SDS011;16985;50.814;8.530;2022-08-24T04:24:55;4.47;;;2.55;;
30173;SDS011;16985;50.814;8.530;2022-08-24T04:27:21;4.25;;;3.20;;
30173;SDS011;16985;50.814;8.530;2022-08-24T04:29:47;4.47;;;3.38;;
30173;SDS011;16985;50.814;8.530;2022-08-24T04:32:13;4.03;;;3.35;;
30173;SDS011;16985;50.814;8.530;2022-08-24T04:34:41;5.07;;;3.33;;
30173;SDS011;16985;50.814;8.530;2022-08-24T04:37:08;4.50;;;3.40;;
30173;SDS011;16985;50.814;8.530;2022-08-24T04:39:34;4.30;;;3.65;;
30173;SDS011;16985;50.814;8.530;2022-08-24T04:44:47;4.43;;;3.38;;
30173;SDS011;16985;50.814;8.530;2022-08-24T04:47:14;3.72;;;2.90;;
30173;SDS011;16985;50.814;8.530;2022-08-24T04:49:40;3.95;;;3.40;;
30173;SDS011;16985;50.814;8.530;2022-08-24T04:52:06;3.90;;;3.50;;
30173;SDS011;16985;50.814;8.530;2022-08-24T04:54:33;5.93;;;3.28;;
30173;SDS011;16985;50.814;8.530;2022-08-24T04:59:38;3.17;;;2.88;;
30173;SDS011;16985;50.814;8.530;2022-08-24T05:02:05;3.30;;;3.00;;
30173;SDS011;16985;50.814;8.530;2022-08-24T05:04:31;7.45;;;3.25;;
30173;SDS011;16985;50.814;8.530;2022-08-24T05:06:57;4.10;;;3.40;;
30173;SDS011;16985;50.814;8.530;2022-08-24T05:09:23;6.75;;;2.67;;
30173;SDS011;16985;50.814;8.530;2022-08-24T05:11:49;4.25;;;2.88;;
30173;SDS011;16985;50.814;8.530;2022-08-24T05:14:18;11.05;;;3.08;;
30173;SDS011;16985;50.814;8.530;2022-08-24T05:16:44;5.28;;;3.00;;
30173;SDS011;16985;50.814;8.530;2022-08-24T05:19:10;4.68;;;3.05;;
30173;SDS011;16985;50.814;8.530;2022-08-24T05:21:36;4.43;;;2.85;;
30173;SDS011;16985;50.814;8.530;2022-08-24T05:24:03;8.25;;;3.63;;
30173;SDS011;16985;50.814;8.530;2022-08-24T05:26:30;5.00;;;3.53;;
30173;SDS011;16985;50.814;8.530;2022-08-24T05:28:59;5.53;;;3.20;;
30173;SDS011;16985;50.814;8.530;2022-08-24T05:31:34;10.35;;;3.67;;
30173;SDS011;16985;50.814;8.530;2022-08-24T05:34:05;8.60;;;3.58;;
30173;SDS011;16985;50.814;8.530;2022-08-24T05:36:32;13.98;;;3.33;;
30173;SDS011;16985;50.814;8.530;2022-08-24T05:39:04;5.57;;;3.33;;
30173;SDS011;16985;50.814;8.530;2022-08-24T05:41:35;7.90;;;3.90;;
30173;SDS011;16985;50.814;8.530;2022-08-24T05:44:09;6.53;;;3.35;;
30173;SDS011;16985;50.814;8.530;2022-08-24T05:46:35;4.60;;;3.08;;
30173;SDS011;16985;50.814;8.530;2022-08-24T05:49:02;4.47;;;3.30;;
30173;SDS011;16985;50.814;8.530;2022-08-24T05:51:30;9.65;;;4.78;;
30173;SDS011;16985;50.814;8.530;2022-08-24T05:54:02;11.32;;;4.50;;
30173;SDS011;16985;50.814;8.530;2022-08-24T05:56:37;12.43;;;4.15;;
30173;SDS011;16985;50.814;8.530;2022-08-24T05:59:03;7.53;;;4.28;;
30173;SDS011;16985;50.814;8.530;2022-08-24T06:01:29;9.90;;;4.60;;
30173;SDS011;16985;50.814;8.530;2022-08-24T06:03:56;12.25;;;6.60;;
30173;SDS011;16985;50.814;8.530;2022-08-24T06:06:23;8.18;;;4.68;;
30173;SDS011;16985;50.814;8.530;2022-08-24T06:08:52;7.88;;;5.07;;
30173;SDS011;16985;50.814;8.530;2022-08-24T06:11:25;9.43;;;5.13;;
30173;SDS011;16985;50.814;8.530;2022-08-24T06:13:59;10.18;;;4.88;;
30173;SDS011;16985;50.814;8.530;2022-08-24T06:16:31;11.95;;;4.72;;
30173;SDS011;16985;50.814;8.530;2022-08-24T06:19:00;11.80;;;5.38;;
30173;SDS011;16985;50.814;8.530;2022-08-24T06:21:27;11.97;;;5.30;;
30173;SDS011;16985;50.814;8.530;2022-08-24T06:23:55;12.38;;;5.82;;
30173;SDS011;16985;50.814;8.530;2022-08-24T06:26:21;7.82;;;4.60;;
30173;SDS011;16985;50.814;8.530;2022-08-24T06:29:06;9.27;;;4.93;;
30173;SDS011;16985;50.814;8.530;2022-08-24T06:31:40;11.77;;;4.63;;
30173;SDS011;16985;50.814;8.530;2022-08-24T06:34:09;6.25;;;3.67;;
30173;SDS011;16985;50.814;8.530;2022-08-24T06:36:38;7.70;;;4.00;;
30173;SDS011;16985;50.814;8.530;2022-08-24T06:39:04;6.68;;;3.67;;
30173;SDS011;16985;50.814;8.530;2022-08-24T06:41:30;10.00;;;3.60;;
30173;SDS011;16985;50.814;8.530;2022-08-24T06:43:56;5.72;;;3.92;;
30173;SDS011;16985;50.814;8.530;2022-08-24T06:46:26;6.03;;;3.55;;
30173;SDS011;16985;50.814;8.530;2022-08-24T06:48:54;5.65;;;4.00;;
30173;SDS011;16985;50.814;8.530;2022-08-24T06:51:20;7.68;;;3.75;;
30173;SDS011;16985;50.814;8.530;2022-08-24T06:53:47;8.75;;;3.05;;
30173;SDS011;16985;50.814;8.530;2022-08-24T06:56:14;8.98;;;3.20;;
30173;SDS011;16985;50.814;8.530;2022-08-24T06:58:41;12.48;;;3.55;;
30173;SDS011;16985;50.814;8.530;2022-08-24T07:01:14;7.72;;;3.70;;
30173;SDS011;16985;50.814;8.530;2022-08-24T07:03:44;7.97;;;3.22;;
30173;SDS011;16985;50.814;8.530;2022-08-24T07:06:36;16.92;;;4.43;;
30173;SDS011;16985;50.814;8.530;2022-08-24T07:09:03;19.90;;;5.40;;
30173;SDS011;16985;50.814;8.530;2022-08-24T07:11:29;14.55;;;3.95;;
30173;SDS011;16985;50.814;8.530;2022-08-24T07:13:58;10.98;;;4.22;;
30173;SDS011;16985;50.814;8.530;2022-08-24T07:16:24;11.40;;;4.03;;
30173;SDS011;16985;50.814;8.530;2022-08-24T07:18:52;5.55;;;3.42;;
30173;SDS011;16985;50.814;8.530;2022-08-24T07:21:19;24.10;;;3.88;;
30173;SDS011;16985;50.814;8.530;2022-08-24T07:26:16;5.82;;;2.72;;
30173;SDS011;16985;50.814;8.530;2022-08-24T07:28:46;15.63;;;3.65;;
30173;SDS011;16985;50.814;8.530;2022-08-24T07:31:17;5.25;;;3.50;;
30173;SDS011;16985;50.814;8.530;2022-08-24T07:33:53;7.78;;;3.33;;
30173;SDS011;16985;50.814;8.530;2022-08-24T07:36:19;8.75;;;3.45;;
30173;SDS011;16985;50.814;8.530;2022-08-24T07:38:45;7.95;;;2.78;;
30173;SDS011;16985;50.814;8.530;2022-08-24T07:41:13;5.18;;;2.60;;
30173;SDS011;16985;50.814;8.530;2022-08-24T07:43:40;4.68;;;2.80;;
30173;SDS011;16985;50.814;8.530;2022-08-24T07:46:06;5.68;;;2.75;;
30173;SDS011;16985;50.814;8.530;2022-08-24T07:48:32;10.60;;;3.13;;
30173;SDS011;16985;50.814;8.530;2022-08-24T07:51:07;5.05;;;2.75;;
30173;SDS011;16985;50.814;8.530;2022-08-24T07:53:40;8.20;;;2.65;;
30173;SDS011;16985;50.814;8.530;2022-08-24T07:56:06;3.53;;;2.47;;
30173;SDS011;16985;50.814;8.530;2022-08-24T07:58:34;2.47;;;2.20;;
30173;SDS011;16985;50.814;8.530;2022-08-24T08:01:02;3.53;;;2.42;;
30173;SDS011;16985;50.814;8.530;2022-08-24T08:05:59;4.72;;;2.80;;
30173;SDS011;16985;50.814;8.530;2022-08-24T08:08:30;6.35;;;2.58;;
30173;SDS011;16985;50.814;8.530;2022-08-24T08:10:59;4.80;;;2.53;;
30173;SDS011;16985;50.814;8.530;2022-08-24T08:13:26;3.23;;;2.20;;
30173;SDS011;16985;50.814;8.530;2022-08-24T08:15:54;3.15;;;2.20;;
30173;SDS011;16985;50.814;8.530;2022-08-24T08:18:20;9.63;;;2.80;;
30173;SDS011;16985;50.814;8.530;2022-08-24T08:20:47;9.38;;;2.40;;
30173;SDS011;16985;50.814;8.530;2022-08-24T08:23:14;2.80;;;2.10;;
30173;SDS011;16985;50.814;8.530;2022-08-24T08:25:58;7.28;;;1.85;;
30173;SDS011;16985;50.814;8.530;2022-08-24T08:28:58;3.70;;;1.92;;
30173;SDS011;16985;50.814;8.530;2022-08-24T08:31:24;3.17;;;2.15;;
30173;SDS011;16985;50.814;8.530;2022-08-24T08:33:50;4.00;;;1.90;;
30173;SDS011;16985;50.814;8.530;2022-08-24T08:36:17;4.13;;;1.90;;
30173;SDS011;16985;50.814;8.530;2022-08-24T08:38:48;5.82;;;2.10;;
30173;SDS011;16985;50.814;8.530;2022-08-24T08:50:20;6.18;;;1.95;;
30173;SDS011;16985;50.814;8.530;2022-08-24T08:59:06;5.18;;;2.15;;
30173;SDS011;16985;50.814;8.530;2022-08-24T09:08:23;4.00;;;1.70;;
30173;SDS011;16985;50.814;8.530;2022-08-24T09:11:31;2.45;;;1.83;;
30173;SDS011;16985;50.814;8.530;2022-08-24T09:20:45;2.72;;;1.65;;
30173;SDS011;16985;50.814;8.530;2022-08-24T09:27:16;2.42;;;1.50;;
30173;SDS011;16985;50.814;8.530;2022-08-24T09:30:12;6.07;;;1.83;;
30173;SDS011;16985;50.814;8.530;2022-08-24T09:57:51;5.15;;;1.40;;
30173;SDS011;16985;50.814;8.530;2022-08-24T10:01:14;4.07;;;1.45;;
30173;SDS011;16985;50.814;8.530;2022-08-24T10:19:39;2.65;;;1.08;;
30173;SDS011;16985;50.814;8.530;2022-08-24T10:22:37;1.90;;;1.40;;
30173;SDS011;16985;50.814;8.530;2022-08-24T10:42:26;3.67;;;1.60;;
30173;SDS011;16985;50.814;8.530;2022-08-24T10:54:18;3.00;;;1.50;;
30173;SDS011;16985;50.814;8.530;2022-08-24T10:59:29;3.55;;;1.50;;
30173;SDS011;16985;50.814;8.530;2022-08-24T11:02:11;4.60;;;1.77;;
30173;SDS011;16985;50.814;8.530;2022-08-24T11:05:12;3.55;;;1.85;;
30173;SDS011;16985;50.814;8.530;2022-08-24T11:07:59;3.22;;;1.42;;
30173;SDS011;16985;50.814;8.530;2022-08-24T11:10:31;5.93;;;1.52;;
30173;SDS011;16985;50.814;8.530;2022-08-24T11:13:23;2.08;;;1.60;;
30173;SDS011;16985;50.814;8.530;2022-08-24T11:15:55;2.60;;;1.50;;
30173;SDS011;16985;50.814;8.530;2022-08-24T11:18:24;3.22;;;1.27;;
30173;SDS011;16985;50.814;8.530;2022-08-24T11:20:53;5.15;;;1.70;;
30173;SDS011;16985;50.814;8.530;2022-08-24T11:23:20;3.40;;;1.45;;
30173;SDS011;16985;50.814;8.530;2022-08-24T11:26:02;3.35;;;1.50;;
30173;SDS011;16985;50.814;8.530;2022-08-24T11:28:48;3.63;;;1.70;;
30173;SDS011;16985;50.814;8.530;2022-08-24T11:31:30;4.35;;;1.70;;
30173;SDS011;16985;50.814;8.530;2022-08-24T11:34:13;2.50;;;1.42;;
30173;SDS011;16985;50.814;8.530;2022-08-24T11:39:34;3.00;;;1.40;;
30173;SDS011;16985;50.814;8.530;2022-08-24T11:42:06;4.63;;;1.70;;
30173;SDS011;16985;50.814;8.530;2022-08-24T11:47:29;4.95;;;1.65;;
30173;SDS011;16985;50.814;8.530;2022-08-24T11:53:22;2.63;;;1.40;;
30173;SDS011;16985;50.814;8.530;2022-08-24T12:02:17;3.97;;;1.88;;
30173;SDS011;16985;50.814;8.530;2022-08-24T12:04:45;4.45;;;1.15;;
30173;SDS011;16985;50.814;8.530;2022-08-24T12:10:00;12.85;;;1.90;;
30173;SDS011;16985;50.814;8.530;2022-08-24T12:18:02;3.15;;;1.77;;
30173;SDS011;16985;50.814;8.530;2022-08-24T12:20:53;4.03;;;1.73;;
30173;SDS011;16985;50.814;8.530;2022-08-24T12:26:03;5.30;;;1.67;;
30173;SDS011;16985;50.814;8.530;2022-08-24T12:28:39;7.00;;;1.88;;
30173;SDS011;16985;50.814;8.530;2022-08-24T12:31:17;5.97;;;1.85;;
30173;SDS011;16985;50.814;8.530;2022-08-24T12:33:53;5.72;;;3.05;;
30173;SDS011;16985;50.814;8.530;2022-08-24T12:37:05;8.65;;;2.35;;
30173;SDS011;16985;50.814;8.530;2022-08-24T12:39:21;5.68;;;1.92;;
30173;SDS011;16985;50.814;8.530;2022-08-24T12:41:59;4.93;;;1.80;;
30173;SDS011;16985;50.814;8.530;2022-08-24T12:44:44;3.65;;;1.73;;
30173;SDS011;16985;50.814;8.530;2022-08-24T12:47:30;3.30;;;1.43;;
30173;SDS011;16985;50.814;8.530;2022-08-24T12:59:38;10.48;;;1.92;;
30173;SDS011;16985;50.814;8.530;2022-08-24T13:09:47;2.83;;;1.40;;
30173;SDS011;16985;50.814;8.530;2022-08-24T13:17:58;3.80;;;1.63;;
30173;SDS011;16985;50.814;8.530;2022-08-24T13:33:24;3.15;;;1.45;;
30173;SDS011;16985;50.814;8.530;2022-08-24T13:36:00;3.15;;;1.48;;
30173;SDS011;16985;50.814;8.530;2022-08-24T13:38:59;1.80;;;1.25;;
30173;SDS011;16985;50.814;8.530;2022-08-24T13:53:28;3.28;;;1.52;;
30173;SDS011;16985;50.814;8.530;2022-08-24T13:56:21;3.95;;;1.35;;
30173;SDS011;16985;50.814;8.530;2022-08-24T14:15:27;4.75;;;1.70;;
30173;SDS011;16985;50.814;8.530;2022-08-24T14:18:47;9.50;;;2.10;;
30173;SDS011;16985;50.814;8.530;2022-08-24T14:21:41;5.30;;;2.40;;
30173;SDS011;16985;50.814;8.530;2022-08-24T14:24:44;3.78;;;1.42;;
30173;SDS011;16985;50.814;8.530;2022-08-24T14:27:45;4.75;;;1.70;;
30173;SDS011;16985;50.814;8.530;2022-08-24T14:52:43;6.10;;;1.33;;
30173;SDS011;16985;50.814;8.530;2022-08-24T14:55:54;4.25;;;1.60;;
30173;SDS011;16985;50.814;8.530;2022-08-24T15:01:39;7.85;;;1.83;;
30173;SDS011;16985;50.814;8.530;2022-08-24T15:07:29;3.00;;;1.10;;
30173;SDS011;16985;50.814;8.530;2022-08-24T15:12:31;2.85;;;1.30;;
30173;SDS011;16985;50.814;8.530;2022-08-24T15:23:09;2.00;;;1.15;;
30173;SDS011;16985;50.814;8.530;2022-08-24T15:25:47;3.05;;;1.63;;
30173;SDS011;16985;50.814;8.530;2022-08-24T15:28:23;3.38;;;1.85;;
30173;SDS011;16985;50.814;8.530;2022-08-24T15:30:58;3.72;;;1.60;;
30173;SDS011;16985;50.814;8.530;2022-08-24T15:33:30;4.18;;;1.27;;
30173;SDS011;16985;50.814;8.530;2022-08-24T15:36:06;3.30;;;1.40;;
30173;SDS011;16985;50.814;8.530;2022-08-24T15:38:37;1.48;;;1.00;;
30173;SDS011;16985;50.814;8.530;2022-08-24T15:43:46;3.25;;;1.25;;
30173;SDS011;16985;50.814;8.530;2022-08-24T15:46:42;2.30;;;1.50;;
30173;SDS011;16985;50.814;8.530;2022-08-24T15:51:53;2.88;;;1.33;;
30173;SDS011;16985;50.814;8.530;2022-08-24T15:57:01;2.05;;;1.13;;
30173;SDS011;16985;50.814;8.530;2022-08-24T15:59:46;1.83;;;1.20;;
30173;SDS011;16985;50.814;8.530;2022-08-24T16:05:38;3.10;;;1.38;;
30173;SDS011;16985;50.814;8.530;2022-08-24T16:10:30;2.10;;;1.30;;
30173;SDS011;16985;50.814;8.530;2022-08-24T16:13:12;1.67;;;1.10;;
30173;SDS011;16985;50.814;8.530;2022-08-24T16:15:45;4.60;;;1.23;;
30173;SDS011;16985;50.814;8.530;2022-08-24T16:18:18;1.70;;;1.13;;
30173;SDS011;16985;50.814;8.530;2022-08-24T16:20:45;3.42;;;1.58;;
30173;SDS011;16985;50.814;8.530;2022-08-24T16:23:20;2.28;;;1.30;;
30173;SDS011;16985;50.814;8.530;2022-08-24T16:26:16;4.68;;;1.40;;
30173;SDS011;16985;50.814;8.530;2022-08-24T16:28:44;4.18;;;1.75;;
30173;SDS011;16985;50.814;8.530;2022-08-24T16:31:10;3.87;;;1.20;;
30173;SDS011;16985;50.814;8.530;2022-08-24T16:33:38;2.25;;;1.42;;
30173;SDS011;16985;50.814;8.530;2022-08-24T16:36:10;2.85;;;1.30;;
30173;SDS011;16985;50.814;8.530;2022-08-24T16:38:48;4.28;;;1.70;;
30173;SDS011;16985;50.814;8.530;2022-08-24T16:41:19;6.45;;;1.50;;
30173;SDS011;16985;50.814;8.530;2022-08-24T16:43:47;3.70;;;1.15;;
30173;SDS011;16985;50.814;8.530;2022-08-24T16:46:17;2.03;;;1.50;;
30173;SDS011;16985;50.814;8.530;2022-08-24T16:48:46;2.53;;;1.27;;
30173;SDS011;16985;50.814;8.530;2022-08-24T16:51:12;5.97;;;1.50;;
30173;SDS011;16985;50.814;8.530;2022-08-24T16:53:38;3.15;;;1.42;;
30173;SDS011;16985;50.814;8.530;2022-08-24T16:56:04;2.50;;;1.30;;
30173;SDS011;16985;50.814;8.530;2022-08-24T16:58:32;2.45;;;1.55;;
30173;SDS011;16985;50.814;8.530;2022-08-24T17:00:59;3.08;;;1.30;;
30173;SDS011;16985;50.814;8.530;2022-08-24T17:03:26;5.07;;;1.80;;
30173;SDS011;16985;50.814;8.530;2022-08-24T17:05:53;2.33;;;1.33;;
30173;SDS011;16985;50.814;8.530;2022-08-24T17:08:20;2.95;;;1.45;;
30173;SDS011;16985;50.814;8.530;2022-08-24T17:10:47;2.55;;;1.50;;
30173;SDS011;16985;50.814;8.530;2022-08-24T17:13:13;2.47;;;1.50;;
30173;SDS011;16985;50.814;8.530;2022-08-24T17:15:38;3.92;;;1.40;;
30173;SDS011;16985;50.814;8.530;2022-08-24T17:18:08;3.85;;;1.70;;
30173;SDS011;16985;50.814;8.530;2022-08-24T17:20:35;2.38;;;1.40;;
30173;SDS011;16985;50.814;8.530;2022-08-24T17:23:01;2.00;;;1.13;;
30173;SDS011;16985;50.814;8.530;2022-08-24T17:25:27;2.88;;;1.58;;
30173;SDS011;16985;50.814;8.530;2022-08-24T17:27:54;3.53;;;1.27;;
30173;SDS011;16985;50.814;8.530;2022-08-24T17:30:21;3.58;;;1.88;;
30173;SDS011;16985;50.814;8.530;2022-08-24T17:32:48;6.45;;;1.50;;
30173;SDS011;16985;50.814;8.530;2022-08-24T17:35:15;4.50;;;1.40;;
30173;SDS011;16985;50.814;8.530;2022-08-24T17:37:42;5.97;;;1.50;;
30173;SDS011;16985;50.814;8.530;2022-08-24T17:40:12;2.47;;;1.30;;
30173;SDS011;16985;50.814;8.530;2022-08-24T17:42:41;3.08;;;1.35;;
30173;SDS011;16985;50.814;8.530;2022-08-24T17:45:07;2.08;;;1.25;;
30173;SDS011;16985;50.814;8.530;2022-08-24T17:47:33;3.15;;;1.63;;
30173;SDS011;16985;50.814;8.530;2022-08-24T17:50:00;3.60;;;1.27;;
30173;SDS011;16985;50.814;8.530;2022-08-24T17:52:26;2.30;;;1.30;;
30173;SDS011;16985;50.814;8.530;2022-08-24T17:54:52;2.65;;;1.23;;
30173;SDS011;16985;50.814;8.530;2022-08-24T17:57:18;3.95;;;1.40;;
30173;SDS011;16985;50.814;8.530;2022-08-24T17:59:49;1.90;;;1.13;;
30173;SDS011;16985;50.814;8.530;2022-08-24T18:02:15;3.47;;;1.20;;
30173;SDS011;16985;50.814;8.530;2022-08-24T18:04:41;3.00;;;1.58;;
30173;SDS011;16985;50.814;8.530;2022-08-24T18:07:12;2.83;;;1.52;;
30173;SDS011;16985;50.814;8.530;2022-08-24T18:09:42;6.57;;;1.65;;
30173;SDS011;16985;50.814;8.530;2022-08-24T18:12:15;1.50;;;1.13;;
30173;SDS011;16985;50.814;8.530;2022-08-24T18:14:45;4.65;;;1.73;;
30173;SDS011;16985;50.814;8.530;2022-08-24T18:17:12;6.90;;;1.55;;
30173;SDS011;16985;50.814;8.530;2022-08-24T18:19:43;6.50;;;1.90;;
30173;SDS011;16985;50.814;8.530;2022-08-24T18:22:11;3.42;;;1.40;;
30173;SDS011;16985;50.814;8.530;2022-08-24T18:24:37;6.78;;;1.10;;
30173;SDS011;16985;50.814;8.530;2022-08-24T18:29:33;2.55;;;1.20;;
30173;SDS011;16985;50.814;8.530;2022-08-24T18:31:59;2.30;;;1.10;;
30173;SDS011;16985;50.814;8.530;2022-08-24T18:34:25;4.53;;;1.40;;
30173;SDS011;16985;50.814;8.530;2022-08-24T18:36:51;2.72;;;1.45;;
30173;SDS011;16985;50.814;8.530;2022-08-24T18:39:17;3.35;;;1.20;;
30173;SDS011;16985;50.814;8.530;2022-08-24T18:41:44;2.00;;;1.40;;
30173;SDS011;16985;50.814;8.530;2022-08-24T18:44:12;1.85;;;1.30;;
30173;SDS011;16985;50.814;8.530;2022-08-24T18:46:45;4.20;;;1.48;;
30173;SDS011;16985;50.814;8.530;2022-08-24T18:49:12;6.43;;;1.65;;
30173;SDS011;16985;50.814;8.530;2022-08-24T18:51:40;3.15;;;1.58;;
30173;SDS011;16985;50.814;8.530;2022-08-24T18:54:09;15.32;;;2.00;;
30173;SDS011;16985;50.814;8.530;2022-08-24T18:56:39;4.78;;;1.40;;
30173;SDS011;16985;50.814;8.530;2022-08-24T18:59:05;4.63;;;1.98;;
30173;SDS011;16985;50.814;8.530;2022-08-24T19:01:31;3.38;;;1.80;;
30173;SDS011;16985;50.814;8.530;2022-08-24T19:04:18;5.20;;;1.73;;
30173;SDS011;16985;50.814;8.530;2022-08-24T19:06:43;7.55;;;2.00;;
30173;SDS011;16985;50.814;8.530;2022-08-24T19:09:09;3.28;;;1.98;;
30173;SDS011;16985;50.814;8.530;2022-08-24T19:11:35;2.97;;;1.52;;
30173;SDS011;16985;50.814;8.530;2022-08-24T19:14:01;3.42;;;1.88;;
30173;SDS011;16985;50.814;8.530;2022-08-24T19:16:27;2.58;;;1.58;;
30173;SDS011;16985;50.814;8.530;2022-08-24T19:18:53;1.92;;;1.33;;
30173;SDS011;16985;50.814;8.530;2022-08-24T19:21:19;4.00;;;2.00;;
30173;SDS011;16985;50.814;8.530;2022-08-24T19:23:45;2.40;;;1.52;;
30173;SDS011;16985;50.814;8.530;2022-08-24T19:26:10;5.45;;;2.10;;
30173;SDS011;16985;50.814;8.530;2022-08-24T19:28:37;3.92;;;1.63;;
30173;SDS011;16985;50.814;8.530;2022-08-24T19:31:06;7.10;;;1.73;;
30173;SDS011;16985;50.814;8.530;2022-08-24T19:33:36;7.00;;;2.13;;